Terminal Aerodrome Forecast
Issued by NWS

Home | Current Version | Previous Version | Text Only | Print | Product List | Glossary On
Versions: 1 2 3 4 5 6 7 8 9 10 11 12 13 14
333
FTAK31 PAJN 251127
TAFAKT
TAF
PAKT 251127Z 2512/2612 14005KT P6SM OVC050
     FM251800 15008KT P6SM BKN050
     FM260800 14004KT P6SM FEW010
     FM261100 15003KT 4SM BR OVC008
      AMD LTD TO CLD VIS AND WIND 2512/2515=

USA.gov is the U.S. government's official web portal to all federal, state and local government web resources and services.